sensor_id;sensor_type;location;lat;lon;timestamp;temperature;humidity
21121;DHT22;12519;43.318;21.898;2023-04-03T00:01:27;12.6;80.0
21121;DHT22;12519;43.318;21.898;2023-04-03T00:06:04;12.5;81.0
21121;DHT22;12519;43.318;21.898;2023-04-03T00:10:41;12.5;81.0
21121;DHT22;12519;43.318;21.898;2023-04-03T00:15:19;12.5;81.0
21121;DHT22;12519;43.318;21.898;2023-04-03T00:19:56;12.5;81.0
21121;DHT22;12519;43.318;21.898;2023-04-03T00:24:32;12.5;81.0
21121;DHT22;12519;43.318;21.898;2023-04-03T00:29:09;12.5;81.0
21121;DHT22;12519;43.318;21.898;2023-04-03T00:33:46;12.5;81.0
21121;DHT22;12519;43.318;21.898;2023-04-03T00:38:22;12.4;80.0
21121;DHT22;12519;43.318;21.898;2023-04-03T00:42:59;12.4;80.0
21121;DHT22;12519;43.318;21.898;2023-04-03T00:47:55;12.2;80.0
21121;DHT22;12519;43.318;21.898;2023-04-03T00:52:40;12.2;80.0
21121;DHT22;12519;43.318;21.898;2023-04-03T00:57:18;12.1;81.0
21121;DHT22;12519;43.318;21.898;2023-04-03T01:01:56;12.1;81.0
21121;DHT22;12519;43.318;21.898;2023-04-03T01:06:36;12.0;82.0
21121;DHT22;12519;43.318;21.898;2023-04-03T01:11:13;12.0;82.0
21121;DHT22;12519;43.318;21.898;2023-04-03T01:15:49;11.8;82.0
21121;DHT22;12519;43.318;21.898;2023-04-03T01:22:01;11.8;82.0
21121;DHT22;12519;43.318;21.898;2023-04-03T01:26:59;11.7;82.0
21121;DHT22;12519;43.318;21.898;2023-04-03T01:31:46;11.7;82.0
21121;DHT22;12519;43.318;21.898;2023-04-03T01:36:31;11.6;82.0
21121;DHT22;12519;43.318;21.898;2023-04-03T01:41:08;11.6;82.0
21121;DHT22;12519;43.318;21.898;2023-04-03T01:45:46;11.5;83.0
21121;DHT22;12519;43.318;21.898;2023-04-03T01:50:23;11.5;83.0
21121;DHT22;12519;43.318;21.898;2023-04-03T01:55:00;11.4;83.0
21121;DHT22;12519;43.318;21.898;2023-04-03T01:59:37;11.4;83.0
21121;DHT22;12519;43.318;21.898;2023-04-03T02:04:14;11.4;83.0
21121;DHT22;12519;43.318;21.898;2023-04-03T02:08:51;11.4;84.0
21121;DHT22;12519;43.318;21.898;2023-04-03T02:13:28;11.4;84.0
21121;DHT22;12519;43.318;21.898;2023-04-03T02:18:05;11.9;84.0
21121;DHT22;12519;43.318;21.898;2023-04-03T02:22:44;11.9;84.0
21121;DHT22;12519;43.318;21.898;2023-04-03T02:27:23;12.4;84.0
21121;DHT22;12519;43.318;21.898;2023-04-03T02:32:00;12.4;84.0
21121;DHT22;12519;43.318;21.898;2023-04-03T02:36:37;12.2;83.0
21121;DHT22;12519;43.318;21.898;2023-04-03T02:41:14;12.2;83.0
21121;DHT22;12519;43.318;21.898;2023-04-03T02:45:50;12.0;82.0
21121;DHT22;12519;43.318;21.898;2023-04-03T02:50:26;12.0;82.0
21121;DHT22;12519;43.318;21.898;2023-04-03T02:55:03;11.8;82.0
21121;DHT22;12519;43.318;21.898;2023-04-03T02:59:43;11.8;82.0
21121;DHT22;12519;43.318;21.898;2023-04-03T03:04:19;11.8;82.0
21121;DHT22;12519;43.318;21.898;2023-04-03T03:08:57;11.7;83.0
21121;DHT22;12519;43.318;21.898;2023-04-03T03:13:34;11.7;83.0
21121;DHT22;12519;43.318;21.898;2023-04-03T03:18:12;11.5;83.0
21121;DHT22;12519;43.318;21.898;2023-04-03T03:22:50;11.5;83.0
21121;DHT22;12519;43.318;21.898;2023-04-03T03:27:26;11.3;84.0
21121;DHT22;12519;43.318;21.898;2023-04-03T03:32:04;11.3;84.0
21121;DHT22;12519;43.318;21.898;2023-04-03T03:36:41;11.2;84.0
21121;DHT22;12519;43.318;21.898;2023-04-03T03:41:17;11.2;84.0
21121;DHT22;12519;43.318;21.898;2023-04-03T03:45:54;11.2;84.0
21121;DHT22;12519;43.318;21.898;2023-04-03T03:50:31;11.2;84.0
21121;DHT22;12519;43.318;21.898;2023-04-03T03:55:08;11.2;84.0
21121;DHT22;12519;43.318;21.898;2023-04-03T03:59:45;11.2;84.0
21121;DHT22;12519;43.318;21.898;2023-04-03T04:04:21;11.2;84.0
21121;DHT22;12519;43.318;21.898;2023-04-03T04:08:57;11.2;84.0
21121;DHT22;12519;43.318;21.898;2023-04-03T04:13:34;11.2;84.0
21121;DHT22;12519;43.318;21.898;2023-04-03T04:18:11;11.6;85.0
21121;DHT22;12519;43.318;21.898;2023-04-03T04:22:48;11.6;85.0
21121;DHT22;12519;43.318;21.898;2023-04-03T04:27:25;12.1;85.0
21121;DHT22;12519;43.318;21.898;2023-04-03T04:32:02;12.1;85.0
21121;DHT22;12519;43.318;21.898;2023-04-03T04:36:40;11.8;85.0
21121;DHT22;12519;43.318;21.898;2023-04-03T04:41:18;11.8;85.0
21121;DHT22;12519;43.318;21.898;2023-04-03T04:46:02;11.4;85.0
21121;DHT22;12519;43.318;21.898;2023-04-03T04:50:46;11.4;85.0
21121;DHT22;12519;43.318;21.898;2023-04-03T04:55:22;11.0;86.0
21121;DHT22;12519;43.318;21.898;2023-04-03T04:59:59;11.0;86.0
21121;DHT22;12519;43.318;21.898;2023-04-03T05:04:36;11.0;86.0
21121;DHT22;12519;43.318;21.898;2023-04-03T05:09:13;10.5;88.0
21121;DHT22;12519;43.318;21.898;2023-04-03T05:13:50;10.5;88.0
21121;DHT22;12519;43.318;21.898;2023-04-03T05:18:26;11.2;90.0
21121;DHT22;12519;43.318;21.898;2023-04-03T05:23:03;11.2;90.0
21121;DHT22;12519;43.318;21.898;2023-04-03T05:27:39;12.0;91.0
21121;DHT22;12519;43.318;21.898;2023-04-03T05:32:16;12.0;91.0
21121;DHT22;12519;43.318;21.898;2023-04-03T05:36:52;12.8;86.0
21121;DHT22;12519;43.318;21.898;2023-04-03T05:41:29;12.8;86.0
21121;DHT22;12519;43.318;21.898;2023-04-03T05:46:09;13.6;81.0
21121;DHT22;12519;43.318;21.898;2023-04-03T05:50:55;13.6;81.0
21121;DHT22;12519;43.318;21.898;2023-04-03T05:55:33;13.0;83.0
21121;DHT22;12519;43.318;21.898;2023-04-03T06:00:13;13.0;83.0
21121;DHT22;12519;43.318;21.898;2023-04-03T06:04:54;13.0;83.0
21121;DHT22;12519;43.318;21.898;2023-04-03T06:09:31;12.3;84.0
21121;DHT22;12519;43.318;21.898;2023-04-03T06:14:09;12.3;84.0
21121;DHT22;12519;43.318;21.898;2023-04-03T06:18:48;12.4;85.0
21121;DHT22;12519;43.318;21.898;2023-04-03T06:23:25;12.4;85.0
21121;DHT22;12519;43.318;21.898;2023-04-03T06:28:01;12.4;85.0
21121;DHT22;12519;43.318;21.898;2023-04-03T06:32:38;12.4;85.0
21121;DHT22;12519;43.318;21.898;2023-04-03T06:37:15;12.4;85.0
21121;DHT22;12519;43.318;21.898;2023-04-03T06:41:56;12.4;85.0
21121;DHT22;12519;43.318;21.898;2023-04-03T06:46:32;12.4;86.0
21121;DHT22;12519;43.318;21.898;2023-04-03T06:51:15;12.4;86.0
21121;DHT22;12519;43.318;21.898;2023-04-03T06:55:57;12.4;87.0
21121;DHT22;12519;43.318;21.898;2023-04-03T07:00:34;12.4;87.0
21121;DHT22;12519;43.318;21.898;2023-04-03T07:05:11;12.4;87.0
21121;DHT22;12519;43.318;21.898;2023-04-03T07:09:49;12.5;88.0
21121;DHT22;12519;43.318;21.898;2023-04-03T07:14:25;12.5;88.0
21121;DHT22;12519;43.318;21.898;2023-04-03T07:19:03;12.6;89.0
21121;DHT22;12519;43.318;21.898;2023-04-03T07:23:40;12.6;89.0
21121;DHT22;12519;43.318;21.898;2023-04-03T07:28:18;12.6;90.0
21121;DHT22;12519;43.318;21.898;2023-04-03T07:32:59;12.6;90.0
21121;DHT22;12519;43.318;21.898;2023-04-03T07:37:36;13.4;90.0
21121;DHT22;12519;43.318;21.898;2023-04-03T07:42:13;13.4;90.0
21121;DHT22;12519;43.318;21.898;2023-04-03T07:46:50;14.3;89.0
21121;DHT22;12519;43.318;21.898;2023-04-03T07:51:27;14.3;89.0
21121;DHT22;12519;43.318;21.898;2023-04-03T07:56:05;14.0;89.0
21121;DHT22;12519;43.318;21.898;2023-04-03T08:00:44;14.0;89.0
21121;DHT22;12519;43.318;21.898;2023-04-03T08:05:23;14.0;89.0
21121;DHT22;12519;43.318;21.898;2023-04-03T08:10:00;13.6;90.0
21121;DHT22;12519;43.318;21.898;2023-04-03T08:14:37;13.6;90.0
21121;DHT22;12519;43.318;21.898;2023-04-03T08:19:15;13.4;91.0
21121;DHT22;12519;43.318;21.898;2023-04-03T08:23:53;13.4;91.0
21121;DHT22;12519;43.318;21.898;2023-04-03T08:28:30;13.2;93.0
21121;DHT22;12519;43.318;21.898;2023-04-03T08:33:08;13.2;93.0
21121;DHT22;12519;43.318;21.898;2023-04-03T08:37:46;12.6;95.0
21121;DHT22;12519;43.318;21.898;2023-04-03T08:42:36;12.6;95.0
21121;DHT22;12519;43.318;21.898;2023-04-03T08:48:25;12.0;96.0
21121;DHT22;12519;43.318;21.898;2023-04-03T08:53:21;12.0;96.0
21121;DHT22;12519;43.318;21.898;2023-04-03T08:58:16;11.7;96.0
21121;DHT22;12519;43.318;21.898;2023-04-03T09:03:00;11.7;96.0
21121;DHT22;12519;43.318;21.898;2023-04-03T09:07:41;11.4;96.0
21121;DHT22;12519;43.318;21.898;2023-04-03T09:12:27;11.4;96.0
21121;DHT22;12519;43.318;21.898;2023-04-03T09:17:21;11.2;97.0
21121;DHT22;12519;43.318;21.898;2023-04-03T09:22:24;11.2;97.0
21121;DHT22;12519;43.318;21.898;2023-04-03T09:27:05;11.1;98.0
21121;DHT22;12519;43.318;21.898;2023-04-03T09:31:48;11.1;98.0
21121;DHT22;12519;43.318;21.898;2023-04-03T09:36:40;12.4;93.0
21121;DHT22;12519;43.318;21.898;2023-04-03T09:41:20;12.4;93.0
21121;DHT22;12519;43.318;21.898;2023-04-03T09:46:17;13.6;88.0
21121;DHT22;12519;43.318;21.898;2023-04-03T09:51:14;13.6;88.0
21121;DHT22;12519;43.318;21.898;2023-04-03T09:55:51;12.6;89.0
21121;DHT22;12519;43.318;21.898;2023-04-03T10:00:31;12.6;89.0
21121;DHT22;12519;43.318;21.898;2023-04-03T10:05:34;11.7;90.0
21121;DHT22;12519;43.318;21.898;2023-04-03T10:10:19;11.7;90.0
21121;DHT22;12519;43.318;21.898;2023-04-03T10:14:59;11.2;92.0
21121;DHT22;12519;43.318;21.898;2023-04-03T10:19:50;11.2;92.0
21121;DHT22;12519;43.318;21.898;2023-04-03T10:25:12;10.7;94.0
21121;DHT22;12519;43.318;21.898;2023-04-03T10:30:28;10.7;94.0
21121;DHT22;12519;43.318;21.898;2023-04-03T10:35:42;10.6;94.0
21121;DHT22;12519;43.318;21.898;2023-04-03T10:40:59;10.6;94.0
21121;DHT22;12519;43.318;21.898;2023-04-03T10:46:02;10.6;94.0
21121;DHT22;12519;43.318;21.898;2023-04-03T10:50:52;10.6;94.0
21121;DHT22;12519;43.318;21.898;2023-04-03T10:56:00;10.4;95.0
21121;DHT22;12519;43.318;21.898;2023-04-03T11:01:01;10.4;95.0
21121;DHT22;12519;43.318;21.898;2023-04-03T11:06:01;10.3;96.0
21121;DHT22;12519;43.318;21.898;2023-04-03T11:10:57;10.3;96.0
21121;DHT22;12519;43.318;21.898;2023-04-03T11:15:57;10.0;98.0
21121;DHT22;12519;43.318;21.898;2023-04-03T11:20:41;10.0;98.0
21121;DHT22;12519;43.318;21.898;2023-04-03T11:25:57;9.7;100.0
21121;DHT22;12519;43.318;21.898;2023-04-03T11:31:02;9.7;100.0
21121;DHT22;12519;43.318;21.898;2023-04-03T11:37:05;9.8;99.0
21121;DHT22;12519;43.318;21.898;2023-04-03T11:42:16;10.0;99.0
21121;DHT22;12519;43.318;21.898;2023-04-03T11:47:44;10.0;99.0
21121;DHT22;12519;43.318;21.898;2023-04-03T11:53:02;10.0;98.0
21121;DHT22;12519;43.318;21.898;2023-04-03T11:58:14;10.0;98.0
21121;DHT22;12519;43.318;21.898;2023-04-03T12:02:53;10.1;98.0
21121;DHT22;12519;43.318;21.898;2023-04-03T12:07:29;10.1;98.0
21121;DHT22;12519;43.318;21.898;2023-04-03T12:12:28;10.1;98.0
21121;DHT22;12519;43.318;21.898;2023-04-03T12:17:20;9.8;99.0
21121;DHT22;12519;43.318;21.898;2023-04-03T12:22:09;9.8;99.0
21121;DHT22;12519;43.318;21.898;2023-04-03T12:27:04;9.6;100.0
21121;DHT22;12519;43.318;21.898;2023-04-03T12:32:19;9.6;100.0
21121;DHT22;12519;43.318;21.898;2023-04-03T12:38:14;9.5;100.0
21121;DHT22;12519;43.318;21.898;2023-04-03T12:44:26;9.4;100.0
21121;DHT22;12519;43.318;21.898;2023-04-03T12:49:45;9.4;100.0
21121;DHT22;12519;43.318;21.898;2023-04-03T12:54:32;10.2;100.0
21121;DHT22;12519;43.318;21.898;2023-04-03T12:59:18;10.2;100.0
21121;DHT22;12519;43.318;21.898;2023-04-03T13:04:02;10.9;100.0
21121;DHT22;12519;43.318;21.898;2023-04-03T13:08:48;10.9;100.0
21121;DHT22;12519;43.318;21.898;2023-04-03T13:13:28;12.6;98.0
21121;DHT22;12519;43.318;21.898;2023-04-03T13:18:05;12.6;98.0
21121;DHT22;12519;43.318;21.898;2023-04-03T13:23:00;14.3;96.0
21121;DHT22;12519;43.318;21.898;2023-04-03T13:27:43;14.3;96.0
21121;DHT22;12519;43.318;21.898;2023-04-03T13:32:22;14.3;96.0
21121;DHT22;12519;43.318;21.898;2023-04-03T13:37:20;12.8;96.0
21121;DHT22;12519;43.318;21.898;2023-04-03T13:42:20;12.8;96.0
21121;DHT22;12519;43.318;21.898;2023-04-03T13:47:18;11.4;96.0
21121;DHT22;12519;43.318;21.898;2023-04-03T13:52:00;11.4;96.0
21121;DHT22;12519;43.318;21.898;2023-04-03T13:57:16;10.6;98.0
21121;DHT22;12519;43.318;21.898;2023-04-03T14:01:55;10.6;98.0
21121;DHT22;12519;43.318;21.898;2023-04-03T14:07:05;9.7;100.0
21121;DHT22;12519;43.318;21.898;2023-04-03T14:11:42;9.7;100.0
21121;DHT22;12519;43.318;21.898;2023-04-03T14:16:28;9.5;100.0
21121;DHT22;12519;43.318;21.898;2023-04-03T14:21:20;9.5;100.0
21121;DHT22;12519;43.318;21.898;2023-04-03T14:25:59;9.3;100.0
21121;DHT22;12519;43.318;21.898;2023-04-03T14:30:35;9.3;100.0
21121;DHT22;12519;43.318;21.898;2023-04-03T14:35:12;9.3;100.0
21121;DHT22;12519;43.318;21.898;2023-04-03T14:39:51;9.3;100.0
21121;DHT22;12519;43.318;21.898;2023-04-03T14:44:29;9.3;100.0
21121;DHT22;12519;43.318;21.898;2023-04-03T14:49:12;9.3;100.0
21121;DHT22;12519;43.318;21.898;2023-04-03T14:53:56;9.4;100.0
21121;DHT22;12519;43.318;21.898;2023-04-03T14:58:32;9.4;100.0
21121;DHT22;12519;43.318;21.898;2023-04-03T15:03:13;9.4;100.0
21121;DHT22;12519;43.318;21.898;2023-04-03T15:07:58;9.4;100.0
21121;DHT22;12519;43.318;21.898;2023-04-03T15:12:35;9.7;99.0
21121;DHT22;12519;43.318;21.898;2023-04-03T15:17:15;9.7;99.0
21121;DHT22;12519;43.318;21.898;2023-04-03T15:21:59;9.7;99.0
21121;DHT22;12519;43.318;21.898;2023-04-03T15:26:36;10.0;99.0
21121;DHT22;12519;43.318;21.898;2023-04-03T15:31:14;10.0;99.0
21121;DHT22;12519;43.318;21.898;2023-04-03T15:35:51;11.0;98.0
21121;DHT22;12519;43.318;21.898;2023-04-03T15:40:28;11.0;98.0
21121;DHT22;12519;43.318;21.898;2023-04-03T15:45:06;12.0;98.0
21121;DHT22;12519;43.318;21.898;2023-04-03T15:49:46;12.0;98.0
21121;DHT22;12519;43.318;21.898;2023-04-03T15:54:22;12.6;98.0
21121;DHT22;12519;43.318;21.898;2023-04-03T15:58:59;12.6;98.0
21121;DHT22;12519;43.318;21.898;2023-04-03T16:03:35;13.1;98.0
21121;DHT22;12519;43.318;21.898;2023-04-03T16:08:12;13.1;98.0
21121;DHT22;12519;43.318;21.898;2023-04-03T16:12:49;12.2;99.0
21121;DHT22;12519;43.318;21.898;2023-04-03T16:17:27;12.2;99.0
21121;DHT22;12519;43.318;21.898;2023-04-03T16:22:04;12.2;99.0
21121;DHT22;12519;43.318;21.898;2023-04-03T16:26:41;11.3;99.0
21121;DHT22;12519;43.318;21.898;2023-04-03T16:31:18;11.3;99.0
21121;DHT22;12519;43.318;21.898;2023-04-03T16:36:01;10.6;99.0
21121;DHT22;12519;43.318;21.898;2023-04-03T16:40:42;10.6;99.0
21121;DHT22;12519;43.318;21.898;2023-04-03T16:45:19;9.8;100.0
21121;DHT22;12519;43.318;21.898;2023-04-03T16:49:57;9.8;100.0
21121;DHT22;12519;43.318;21.898;2023-04-03T16:54:34;9.8;100.0
21121;DHT22;12519;43.318;21.898;2023-04-03T16:59:11;9.8;100.0
21121;DHT22;12519;43.318;21.898;2023-04-03T17:03:48;9.8;100.0
21121;DHT22;12519;43.318;21.898;2023-04-03T17:08:24;9.8;100.0
21121;DHT22;12519;43.318;21.898;2023-04-03T17:13:00;9.8;100.0
21121;DHT22;12519;43.318;21.898;2023-04-03T17:17:37;9.8;100.0
21121;DHT22;12519;43.318;21.898;2023-04-03T17:22:13;9.8;100.0
21121;DHT22;12519;43.318;21.898;2023-04-03T17:26:49;9.8;100.0
21121;DHT22;12519;43.318;21.898;2023-04-03T17:31:25;9.8;100.0
21121;DHT22;12519;43.318;21.898;2023-04-03T17:36:03;9.8;100.0
21121;DHT22;12519;43.318;21.898;2023-04-03T17:40:42;9.8;100.0
21121;DHT22;12519;43.318;21.898;2023-04-03T17:45:19;9.7;100.0
21121;DHT22;12519;43.318;21.898;2023-04-03T17:49:57;9.7;100.0
21121;DHT22;12519;43.318;21.898;2023-04-03T17:54:33;9.6;100.0
21121;DHT22;12519;43.318;21.898;2023-04-03T17:59:10;9.6;100.0
21121;DHT22;12519;43.318;21.898;2023-04-03T18:03:50;9.6;100.0
21121;DHT22;12519;43.318;21.898;2023-04-03T18:08:38;9.6;100.0
21121;DHT22;12519;43.318;21.898;2023-04-03T18:13:31;9.6;100.0
21121;DHT22;12519;43.318;21.898;2023-04-03T18:18:09;9.6;100.0
21121;DHT22;12519;43.318;21.898;2023-04-03T18:22:46;9.6;100.0
21121;DHT22;12519;43.318;21.898;2023-04-03T18:27:26;9.5;100.0
21121;DHT22;12519;43.318;21.898;2023-04-03T18:32:07;9.5;100.0
21121;DHT22;12519;43.318;21.898;2023-04-03T18:36:54;9.5;100.0
21121;DHT22;12519;43.318;21.898;2023-04-03T18:41:33;9.5;100.0
21121;DHT22;12519;43.318;21.898;2023-04-03T18:46:13;9.5;100.0
21121;DHT22;12519;43.318;21.898;2023-04-03T18:50:50;9.5;100.0
21121;DHT22;12519;43.318;21.898;2023-04-03T18:55:28;9.6;100.0
21121;DHT22;12519;43.318;21.898;2023-04-03T19:00:06;9.6;100.0
21121;DHT22;12519;43.318;21.898;2023-04-03T19:04:47;9.7;100.0
21121;DHT22;12519;43.318;21.898;2023-04-03T19:09:26;9.7;100.0
21121;DHT22;12519;43.318;21.898;2023-04-03T19:14:04;9.6;100.0
21121;DHT22;12519;43.318;21.898;2023-04-03T19:18:42;9.6;100.0
21121;DHT22;12519;43.318;21.898;2023-04-03T19:23:18;9.6;100.0
21121;DHT22;12519;43.318;21.898;2023-04-03T19:27:54;9.6;100.0
21121;DHT22;12519;43.318;21.898;2023-04-03T19:32:31;9.6;100.0
21121;DHT22;12519;43.318;21.898;2023-04-03T19:37:07;9.6;100.0
21121;DHT22;12519;43.318;21.898;2023-04-03T19:41:44;9.6;100.0
21121;DHT22;12519;43.318;21.898;2023-04-03T19:46:21;9.6;100.0
21121;DHT22;12519;43.318;21.898;2023-04-03T19:51:04;9.6;100.0
21121;DHT22;12519;43.318;21.898;2023-04-03T19:55:40;9.6;100.0
21121;DHT22;12519;43.318;21.898;2023-04-03T20:00:17;9.6;100.0
21121;DHT22;12519;43.318;21.898;2023-04-03T20:04:55;9.6;100.0
21121;DHT22;12519;43.318;21.898;2023-04-03T20:09:31;9.6;100.0
21121;DHT22;12519;43.318;21.898;2023-04-03T20:14:07;9.6;100.0
21121;DHT22;12519;43.318;21.898;2023-04-03T20:18:43;9.6;100.0
21121;DHT22;12519;43.318;21.898;2023-04-03T20:23:20;9.7;100.0
21121;DHT22;12519;43.318;21.898;2023-04-03T20:27:58;9.7;100.0
21121;DHT22;12519;43.318;21.898;2023-04-03T20:32:35;9.7;100.0
21121;DHT22;12519;43.318;21.898;2023-04-03T20:37:12;9.9;99.0
21121;DHT22;12519;43.318;21.898;2023-04-03T20:41:49;9.9;99.0
21121;DHT22;12519;43.318;21.898;2023-04-03T20:46:26;10.1;97.0
21121;DHT22;12519;43.318;21.898;2023-04-03T20:51:11;10.1;97.0
21121;DHT22;12519;43.318;21.898;2023-04-03T20:55:56;9.9;98.0
21121;DHT22;12519;43.318;21.898;2023-04-03T21:00:36;9.9;98.0
21121;DHT22;12519;43.318;21.898;2023-04-03T21:05:13;9.7;99.0
21121;DHT22;12519;43.318;21.898;2023-04-03T21:21:02;9.4;99.0
21121;DHT22;12519;43.318;21.898;2023-04-03T21:25:40;9.2;100.0
21121;DHT22;12519;43.318;21.898;2023-04-03T21:30:18;9.2;100.0
21121;DHT22;12519;43.318;21.898;2023-04-03T21:34:54;9.1;100.0
21121;DHT22;12519;43.318;21.898;2023-04-03T21:39:31;9.1;100.0
21121;DHT22;12519;43.318;21.898;2023-04-03T21:44:10;9.1;100.0
21121;DHT22;12519;43.318;21.898;2023-04-03T21:48:47;9.1;100.0
21121;DHT22;12519;43.318;21.898;2023-04-03T21:53:23;9.1;100.0
21121;DHT22;12519;43.318;21.898;2023-04-03T21:58:00;9.4;100.0
21121;DHT22;12519;43.318;21.898;2023-04-03T22:02:38;9.4;100.0
21121;DHT22;12519;43.318;21.898;2023-04-03T22:07:15;9.7;99.0
21121;DHT22;12519;43.318;21.898;2023-04-03T22:11:52;9.7;99.0
21121;DHT22;12519;43.318;21.898;2023-04-03T22:16:29;9.4;100.0
21121;DHT22;12519;43.318;21.898;2023-04-03T22:21:05;9.4;100.0
21121;DHT22;12519;43.318;21.898;2023-04-03T22:25:42;9.2;100.0
21121;DHT22;12519;43.318;21.898;2023-04-03T22:30:30;9.2;100.0
21121;DHT22;12519;43.318;21.898;2023-04-03T22:35:07;9.0;100.0
21121;DHT22;12519;43.318;21.898;2023-04-03T22:39:44;9.0;100.0
21121;DHT22;12519;43.318;21.898;2023-04-03T22:44:20;8.9;100.0
21121;DHT22;12519;43.318;21.898;2023-04-03T22:48:57;8.9;100.0
21121;DHT22;12519;43.318;21.898;2023-04-03T22:53:33;8.9;100.0
21121;DHT22;12519;43.318;21.898;2023-04-03T22:58:11;8.6;100.0
21121;DHT22;12519;43.318;21.898;2023-04-03T23:02:48;8.6;100.0
21121;DHT22;12519;43.318;21.898;2023-04-03T23:07:24;8.4;100.0
21121;DHT22;12519;43.318;21.898;2023-04-03T23:12:01;8.4;100.0
21121;DHT22;12519;43.318;21.898;2023-04-03T23:16:38;8.0;100.0
21121;DHT22;12519;43.318;21.898;2023-04-03T23:21:15;8.0;100.0
21121;DHT22;12519;43.318;21.898;2023-04-03T23:25:52;7.6;100.0
21121;DHT22;12519;43.318;21.898;2023-04-03T23:30:36;7.6;100.0
21121;DHT22;12519;43.318;21.898;2023-04-03T23:35:13;7.4;100.0
21121;DHT22;12519;43.318;21.898;2023-04-03T23:39:51;7.4;100.0
21121;DHT22;12519;43.318;21.898;2023-04-03T23:44:28;7.2;100.0
21121;DHT22;12519;43.318;21.898;2023-04-03T23:49:05;7.2;100.0
21121;DHT22;12519;43.318;21.898;2023-04-03T23:53:42;7.2;100.0
21121;DHT22;12519;43.318;21.898;2023-04-03T23:58:18;7.0;100.0
